createdAt,value
2018-08-30T00:00:21.878Z,8.85
2018-08-30T00:01:25.857Z,9.85
2018-08-30T00:02:30.204Z,9.75
2018-08-30T00:03:33.636Z,11.20
2018-08-30T00:04:37.050Z,11.10
2018-08-30T00:05:41.915Z,13.10
2018-08-30T00:06:45.357Z,11.05
2018-08-30T00:07:48.753Z,12.23
2018-08-30T00:08:52.141Z,12.80
2018-08-30T00:09:55.548Z,11.45
2018-08-30T00:11:00.135Z,11.10
2018-08-30T00:12:03.627Z,9.70
2018-08-30T00:13:07.013Z,9.88
2018-08-30T00:14:10.417Z,11.55
2018-08-30T00:15:14.800Z,10.53
2018-08-30T00:16:20.236Z,10.60
2018-08-30T00:17:23.664Z,10.05
2018-08-30T00:18:27.061Z,8.80
2018-08-30T00:19:30.445Z,10.05
2018-08-30T00:20:35.672Z,9.43
2018-08-30T00:21:39.080Z,10.98
2018-08-30T00:22:42.472Z,10.78
2018-08-30T00:23:45.951Z,11.28
2018-08-30T00:24:49.335Z,10.35
2018-08-30T00:25:53.447Z,9.50
2018-08-30T00:26:56.852Z,15.28
2018-08-30T00:28:00.236Z,10.28
2018-08-30T00:29:03.767Z,10.50
2018-08-30T00:30:08.391Z,10.48
2018-08-30T00:31:13.362Z,12.35
2018-08-30T00:32:16.846Z,10.03
2018-08-30T00:33:20.796Z,11.43
2018-08-30T00:34:24.660Z,11.05
2018-08-30T00:35:29.966Z,11.60
2018-08-30T00:36:33.480Z,13.62
2018-08-30T00:37:36.905Z,12.40
2018-08-30T00:38:40.291Z,12.75
2018-08-30T00:39:43.720Z,14.93
2018-08-30T00:40:48.308Z,14.33
2018-08-30T00:41:51.755Z,17.00
2018-08-30T00:42:55.144Z,14.10
2018-08-30T00:43:58.539Z,16.05
2018-08-30T00:45:01.945Z,19.35
2018-08-30T00:46:06.809Z,15.20
2018-08-30T00:47:14.596Z,18.70
2018-08-30T00:48:17.992Z,18.85
2018-08-30T00:49:21.369Z,20.20
2018-08-30T00:50:25.800Z,18.73
2018-08-30T00:51:29.583Z,16.02
2018-08-30T00:52:33.012Z,19.40
2018-08-30T00:53:36.470Z,19.02
2018-08-30T00:54:39.865Z,17.10
2018-08-30T00:55:44.428Z,16.60
2018-08-30T00:56:47.912Z,20.68
2018-08-30T00:57:51.303Z,18.80
2018-08-30T00:58:54.696Z,17.82
2018-08-30T00:59:58.081Z,16.35
2018-08-30T01:01:02.548Z,19.25
2018-08-30T01:02:06.024Z,18.98
2018-08-30T01:03:09.421Z,18.65
2018-08-30T01:04:12.805Z,20.52
2018-08-30T01:05:18.206Z,17.12
2018-08-30T01:06:22.795Z,17.17
2018-08-30T01:07:26.200Z,17.57
2018-08-30T01:08:29.580Z,17.73
2018-08-30T01:09:32.977Z,18.55
2018-08-30T01:10:37.935Z,19.73
2018-08-30T01:11:41.379Z,18.87
2018-08-30T01:12:50.168Z,19.27
2018-08-30T01:13:53.563Z,19.27
2018-08-30T01:14:56.963Z,20.95
2018-08-30T01:16:02.145Z,20.40
2018-08-30T01:17:05.601Z,21.30
2018-08-30T01:18:08.987Z,20.72
2018-08-30T01:19:12.376Z,21.90
2018-08-30T01:20:16.858Z,20.60
2018-08-30T01:21:21.285Z,18.42
2018-08-30T01:22:24.708Z,21.77
2018-08-30T01:23:28.096Z,22.40
2018-08-30T01:24:31.496Z,26.25
2018-08-30T01:25:35.985Z,23.15
2018-08-30T01:26:39.435Z,23.47
2018-08-30T01:27:42.831Z,25.05
2018-08-30T01:28:46.224Z,23.60
2018-08-30T01:29:49.608Z,25.65
2018-08-30T01:30:54.138Z,28.73
2018-08-30T01:31:57.568Z,23.62
2018-08-30T01:33:00.962Z,25.72
2018-08-30T01:34:04.360Z,24.15
2018-08-30T01:35:08.812Z,24.32
2018-08-30T01:36:13.297Z,25.92
2018-08-30T01:37:16.741Z,27.50
2018-08-30T01:38:20.128Z,28.05
2018-08-30T01:39:23.539Z,26.45
2018-08-30T01:40:28.017Z,28.73
2018-08-30T01:41:31.576Z,26.00
2018-08-30T01:42:35.008Z,25.15
2018-08-30T01:43:38.400Z,27.25
2018-08-30T01:44:41.804Z,26.95
2018-08-30T01:45:46.289Z,27.00
2018-08-30T01:46:49.716Z,27.48
2018-08-30T01:47:53.104Z,26.50
2018-08-30T01:48:56.514Z,26.07
2018-08-30T01:49:59.915Z,26.93
2018-08-30T01:51:04.519Z,27.17
2018-08-30T01:52:07.975Z,26.15
2018-08-30T01:53:11.361Z,26.65
2018-08-30T01:54:14.745Z,30.90
2018-08-30T01:55:19.081Z,27.35
2018-08-30T01:56:23.445Z,23.52
2018-08-30T01:57:26.881Z,29.80
2018-08-30T01:58:30.284Z,27.50
2018-08-30T01:59:33.785Z,28.75
2018-08-30T02:00:38.280Z,27.52
2018-08-30T02:01:41.692Z,29.40
2018-08-30T02:02:45.129Z,25.80
2018-08-30T02:03:48.993Z,28.80
2018-08-30T02:04:52.395Z,29.55
2018-08-30T02:05:56.926Z,28.25
2018-08-30T02:07:00.655Z,31.82
2018-08-30T02:08:04.055Z,29.20
2018-08-30T02:09:07.445Z,29.57
2018-08-30T02:10:11.861Z,29.90
2018-08-30T02:11:16.249Z,28.50
2018-08-30T02:12:19.747Z,30.62
2018-08-30T02:13:23.161Z,29.82
2018-08-30T02:14:26.596Z,29.77
2018-08-30T02:15:31.514Z,31.62
2018-08-30T02:16:34.953Z,29.32
2018-08-30T02:17:38.355Z,28.70
2018-08-30T02:18:41.764Z,29.15
2018-08-30T02:19:45.157Z,27.10
2018-08-30T02:20:49.954Z,30.95
2018-08-30T02:21:53.372Z,26.55
2018-08-30T02:22:56.768Z,27.45
2018-08-30T02:24:00.168Z,28.45
2018-08-30T02:25:03.699Z,28.23
2018-08-30T02:26:08.302Z,28.20
2018-08-30T02:27:11.704Z,30.80
2018-08-30T02:28:15.092Z,25.90
2018-08-30T02:29:18.517Z,24.98
2018-08-30T02:30:23.104Z,25.32
2018-08-30T02:31:27.365Z,30.97
2018-08-30T02:32:30.936Z,27.45
2018-08-30T02:33:34.343Z,26.07
2018-08-30T02:34:37.755Z,29.30
2018-08-30T02:35:42.260Z,31.60
2018-08-30T02:36:45.675Z,28.23
2018-08-30T02:37:49.065Z,31.68
2018-08-30T02:38:52.516Z,28.90
2018-08-30T02:39:55.960Z,29.57
2018-08-30T02:41:00.318Z,30.00
2018-08-30T02:42:03.772Z,30.23
2018-08-30T02:43:07.161Z,28.52
2018-08-30T02:44:10.551Z,27.82
2018-08-30T02:45:15.166Z,33.63
2018-08-30T02:46:19.717Z,28.98
2018-08-30T02:47:23.141Z,28.87
2018-08-30T02:48:26.528Z,29.48
2018-08-30T02:49:29.915Z,29.18
2018-08-30T02:50:34.396Z,30.88
2018-08-30T02:51:37.869Z,30.30
2018-08-30T02:52:41.302Z,30.25
2018-08-30T02:53:44.689Z,29.85
2018-08-30T02:54:48.084Z,31.30
2018-08-30T02:55:52.559Z,29.42
2018-08-30T02:56:55.993Z,30.80
2018-08-30T02:57:59.379Z,30.77
2018-08-30T02:59:02.768Z,29.32
2018-08-30T03:00:07.329Z,29.85
2018-08-30T03:01:11.939Z,28.27
2018-08-30T03:02:15.353Z,30.40
2018-08-30T03:03:18.745Z,27.65
2018-08-30T03:04:22.145Z,28.75
2018-08-30T03:05:26.544Z,29.42
2018-08-30T03:06:30.397Z,25.62
2018-08-30T03:07:33.788Z,26.62
2018-08-30T03:08:37.183Z,33.67
2018-08-30T03:09:40.620Z,30.72
2018-08-30T03:10:45.178Z,31.90
2018-08-30T03:11:48.632Z,33.25
2018-08-30T03:12:52.012Z,31.48
2018-08-30T03:13:55.396Z,28.67
2018-08-30T03:15:05.191Z,28.70
2018-08-30T03:16:09.680Z,28.92
2018-08-30T03:17:13.120Z,29.20
2018-08-30T03:18:16.549Z,31.20
2018-08-30T03:19:19.932Z,36.00
2018-08-30T03:20:24.325Z,29.60
2018-08-30T03:21:28.759Z,30.17
2018-08-30T03:22:32.220Z,30.70
2018-08-30T03:23:35.612Z,30.90
2018-08-30T03:24:38.996Z,32.25
2018-08-30T03:25:43.999Z,29.85
2018-08-30T03:26:47.403Z,34.85
2018-08-30T03:27:50.825Z,35.75
2018-08-30T03:28:54.219Z,31.02
2018-08-30T03:29:57.611Z,33.42
2018-08-30T03:31:02.198Z,38.70
2018-08-30T03:32:05.898Z,31.40
2018-08-30T03:33:09.359Z,32.40
2018-08-30T03:34:12.764Z,31.20
2018-08-30T03:35:17.221Z,31.90
2018-08-30T03:36:22.531Z,28.02
2018-08-30T03:37:25.924Z,35.03
2018-08-30T03:38:29.366Z,33.25
2018-08-30T03:39:32.767Z,33.48
2018-08-30T03:40:37.287Z,32.78
2018-08-30T03:41:40.716Z,32.33
2018-08-30T03:42:44.108Z,32.73
2018-08-30T03:43:47.559Z,31.10
2018-08-30T03:44:50.949Z,31.52
2018-08-30T03:45:55.456Z,32.63
2018-08-30T03:46:58.940Z,33.40
2018-08-30T03:48:02.338Z,32.13
2018-08-30T03:49:05.970Z,32.80
2018-08-30T03:50:10.893Z,35.63
2018-08-30T03:51:15.968Z,29.63
2018-08-30T03:52:19.374Z,31.07
2018-08-30T03:53:22.788Z,33.23
2018-08-30T03:54:26.211Z,29.77
2018-08-30T03:55:30.613Z,29.40
2018-08-30T03:56:34.085Z,30.05
2018-08-30T03:57:37.468Z,30.25
2018-08-30T03:58:40.855Z,27.40
2018-08-30T03:59:44.273Z,30.12
2018-08-30T04:00:49.282Z,36.60
2018-08-30T04:01:52.727Z,32.25
2018-08-30T04:02:56.112Z,30.75
2018-08-30T04:03:59.508Z,33.35
2018-08-30T04:05:03.761Z,32.63
2018-08-30T04:06:08.735Z,29.65
2018-08-30T04:07:12.188Z,32.75
2018-08-30T04:08:15.580Z,28.90
2018-08-30T04:09:18.965Z,28.60
2018-08-30T04:10:23.519Z,27.73
2018-08-30T04:11:28.171Z,30.85
2018-08-30T04:12:31.609Z,30.37
2018-08-30T04:13:35.066Z,28.83
2018-08-30T04:14:38.418Z,26.50
2018-08-30T04:15:43.016Z,31.25
2018-08-30T04:16:46.453Z,31.20
2018-08-30T04:17:49.843Z,30.55
2018-08-30T04:19:03.664Z,28.77
2018-08-30T04:20:08.130Z,30.40
2018-08-30T04:21:13.092Z,30.43
2018-08-30T04:22:16.512Z,32.48
2018-08-30T04:23:20.426Z,34.45
2018-08-30T04:24:24.327Z,29.42
2018-08-30T04:25:28.740Z,30.55
2018-08-30T04:26:33.040Z,31.85
2018-08-30T04:27:36.514Z,31.60
2018-08-30T04:28:39.900Z,29.45
2018-08-30T04:29:43.782Z,31.40
2018-08-30T04:30:48.548Z,33.48
2018-08-30T04:31:52.009Z,30.95
2018-08-30T04:32:55.394Z,30.68
2018-08-30T04:33:58.793Z,27.10
2018-08-30T04:35:02.211Z,30.52
2018-08-30T04:36:07.312Z,29.67
2018-08-30T04:37:10.779Z,29.32
2018-08-30T04:38:14.164Z,28.57
2018-08-30T04:39:17.568Z,30.40
2018-08-30T04:40:23.291Z,28.23
2018-08-30T04:41:28.183Z,29.27
2018-08-30T04:42:31.650Z,30.68
2018-08-30T04:43:35.004Z,34.65
2018-08-30T04:44:38.401Z,30.30
2018-08-30T04:45:42.885Z,30.25
2018-08-30T04:46:46.311Z,31.48
2018-08-30T04:47:49.753Z,29.72
2018-08-30T04:48:53.228Z,32.93
2018-08-30T04:49:57.627Z,29.27
2018-08-30T04:51:02.261Z,28.55
2018-08-30T04:52:05.692Z,34.60
2018-08-30T04:53:09.111Z,29.95
2018-08-30T04:54:12.506Z,27.87
2018-08-30T04:55:16.761Z,30.32
2018-08-30T04:56:21.198Z,29.87
2018-08-30T04:57:24.625Z,27.65
2018-08-30T04:58:28.023Z,32.88
2018-08-30T04:59:31.427Z,28.65
2018-08-30T05:00:35.821Z,28.73
2018-08-30T05:01:39.247Z,29.87
2018-08-30T05:02:43.071Z,28.73
2018-08-30T05:03:46.479Z,31.80
2018-08-30T05:04:49.889Z,29.82
2018-08-30T05:05:54.436Z,29.23
2018-08-30T05:06:57.852Z,31.93
2018-08-30T05:08:01.253Z,32.10
2018-08-30T05:09:08.002Z,31.87
2018-08-30T05:10:12.843Z,28.95
2018-08-30T05:11:17.341Z,30.50
2018-08-30T05:12:20.824Z,28.12
2018-08-30T05:13:24.228Z,29.42
2018-08-30T05:14:27.701Z,27.98
2018-08-30T05:15:32.169Z,31.87
2018-08-30T05:16:35.955Z,30.15
2018-08-30T05:17:39.348Z,29.18
2018-08-30T05:18:42.745Z,26.73
2018-08-30T05:19:46.158Z,28.05
2018-08-30T05:20:51.074Z,29.80
2018-08-30T05:21:54.484Z,27.52
2018-08-30T05:22:57.882Z,30.72
2018-08-30T05:24:01.292Z,27.95
2018-08-30T05:25:05.448Z,31.97
2018-08-30T05:26:10.017Z,27.58
2018-08-30T05:27:13.432Z,27.70
2018-08-30T05:28:16.823Z,30.75
2018-08-30T05:29:20.245Z,30.55
2018-08-30T05:30:25.218Z,33.18
2018-08-30T05:31:29.846Z,30.32
2018-08-30T05:32:33.201Z,29.15
2018-08-30T05:33:36.608Z,29.40
2018-08-30T05:34:40.000Z,31.20
2018-08-30T05:35:44.689Z,28.52
2018-08-30T05:36:48.149Z,28.62
2018-08-30T05:37:51.531Z,28.47
2018-08-30T05:38:54.976Z,26.85
2018-08-30T05:39:58.492Z,28.27
2018-08-30T05:41:03.040Z,28.83
2018-08-30T05:42:06.494Z,29.42
2018-08-30T05:43:09.879Z,30.08
2018-08-30T05:44:13.270Z,24.82
2018-08-30T05:45:17.630Z,29.12
2018-08-30T05:46:21.952Z,27.13
2018-08-30T05:47:25.367Z,26.30
2018-08-30T05:48:28.760Z,30.15
2018-08-30T05:49:32.161Z,30.05
2018-08-30T05:50:36.666Z,31.20
2018-08-30T05:51:40.089Z,29.67
2018-08-30T05:52:43.479Z,28.98
2018-08-30T05:53:46.895Z,29.55
2018-08-30T05:54:50.370Z,27.37
2018-08-30T05:55:55.313Z,31.45
2018-08-30T05:56:58.798Z,28.17
2018-08-30T05:58:02.152Z,28.60
2018-08-30T05:59:05.563Z,25.48
2018-08-30T06:00:10.182Z,27.67
2018-08-30T06:01:14.721Z,27.15
2018-08-30T06:02:18.213Z,28.15
2018-08-30T06:03:21.616Z,31.50
2018-08-30T06:04:25.010Z,26.80
2018-08-30T06:05:29.627Z,26.87
2018-08-30T06:06:33.059Z,24.90
2018-08-30T06:07:36.472Z,27.32
2018-08-30T06:08:39.856Z,31.15
2018-08-30T06:09:43.244Z,28.30
2018-08-30T06:10:48.161Z,29.10
2018-08-30T06:11:51.588Z,29.15
2018-08-30T06:12:55.006Z,31.12
2018-08-30T06:13:58.399Z,26.97
2018-08-30T06:15:01.854Z,24.65
2018-08-30T06:16:06.370Z,26.30
2018-08-30T06:17:09.824Z,25.97
2018-08-30T06:18:13.266Z,28.45
2018-08-30T06:19:16.656Z,24.98
2018-08-30T06:20:20.978Z,27.25
2018-08-30T06:21:25.235Z,26.70
2018-08-30T06:22:28.648Z,29.35
2018-08-30T06:23:32.057Z,25.52
2018-08-30T06:24:35.463Z,29.12
2018-08-30T06:25:39.949Z,27.37
2018-08-30T06:26:43.425Z,29.60
2018-08-30T06:27:46.819Z,29.23
2018-08-30T06:28:50.285Z,29.30
2018-08-30T06:29:53.728Z,30.82
2018-08-30T06:30:58.250Z,27.35
2018-08-30T06:32:01.731Z,26.07
2018-08-30T06:33:05.131Z,21.82
2018-08-30T06:34:08.555Z,28.32
2018-08-30T06:35:13.021Z,25.97
2018-08-30T06:36:17.653Z,26.40
2018-08-30T06:37:21.121Z,30.45
2018-08-30T06:38:24.516Z,25.77
2018-08-30T06:39:28.026Z,29.35
2018-08-30T06:40:32.588Z,25.08
2018-08-30T06:41:36.161Z,29.27
2018-08-30T06:42:39.559Z,27.32
2018-08-30T06:43:42.947Z,24.90
2018-08-30T06:44:46.347Z,26.80
2018-08-30T06:45:50.907Z,24.77
2018-08-30T06:46:54.326Z,26.55
2018-08-30T06:47:57.714Z,26.20
2018-08-30T06:49:01.215Z,23.18
2018-08-30T06:50:05.196Z,21.42
2018-08-30T06:51:09.649Z,25.55
2018-08-30T06:52:13.076Z,24.20
2018-08-30T06:53:16.481Z,22.80
2018-08-30T06:54:19.899Z,24.12
2018-08-30T06:55:24.452Z,27.80
2018-08-30T06:56:28.959Z,26.42
2018-08-30T06:57:32.413Z,33.98
2018-08-30T06:58:35.848Z,24.77
2018-08-30T06:59:39.243Z,24.92
2018-08-30T07:00:43.739Z,24.30
2018-08-30T07:01:47.184Z,24.85
2018-08-30T07:02:50.576Z,24.47
2018-08-30T07:03:53.992Z,24.45
2018-08-30T07:04:57.437Z,23.02
2018-08-30T07:06:02.013Z,23.40
2018-08-30T07:07:05.517Z,23.35
2018-08-30T07:08:08.952Z,23.90
2018-08-30T07:09:12.816Z,25.15
2018-08-30T07:10:17.202Z,26.93
2018-08-30T07:11:24.497Z,24.95
2018-08-30T07:12:27.916Z,21.48
2018-08-30T07:13:31.300Z,18.73
2018-08-30T07:14:34.771Z,21.20
2018-08-30T07:15:39.470Z,20.20
2018-08-30T07:16:42.936Z,21.75
2018-08-30T07:17:46.344Z,20.17
2018-08-30T07:18:49.743Z,21.45
2018-08-30T07:19:53.124Z,24.72
2018-08-30T07:20:57.509Z,18.77
2018-08-30T07:22:00.992Z,18.80
2018-08-30T07:23:04.469Z,19.25
2018-08-30T07:24:07.905Z,18.42
2018-08-30T07:25:12.680Z,19.05
2018-08-30T07:26:17.737Z,20.65
2018-08-30T07:27:21.360Z,18.67
2018-08-30T07:28:24.762Z,20.15
2018-08-30T07:29:28.168Z,17.90
2018-08-30T07:30:32.714Z,18.67
2018-08-30T07:31:36.128Z,18.05
2018-08-30T07:32:39.555Z,19.15
2018-08-30T07:33:42.984Z,19.35
2018-08-30T07:34:46.494Z,20.95
2018-08-30T07:35:51.434Z,18.52
2018-08-30T07:36:54.852Z,17.37
2018-08-30T07:37:58.259Z,17.55
2018-08-30T07:39:01.651Z,20.15
2018-08-30T07:40:06.322Z,16.82
2018-08-30T07:41:11.307Z,17.25
2018-08-30T07:42:14.816Z,18.75
2018-08-30T07:43:18.254Z,17.73
2018-08-30T07:44:21.737Z,16.85
2018-08-30T07:45:27.035Z,18.87
2018-08-30T07:46:30.620Z,17.70
2018-08-30T07:47:34.010Z,14.98
2018-08-30T07:48:37.421Z,17.27
2018-08-30T07:49:40.875Z,16.90
2018-08-30T07:50:45.339Z,16.27
2018-08-30T07:51:48.752Z,15.85
2018-08-30T07:52:52.177Z,13.48
2018-08-30T07:53:55.592Z,14.68
2018-08-30T07:54:58.993Z,16.37
2018-08-30T07:56:04.002Z,15.98
2018-08-30T07:57:07.397Z,18.35
2018-08-30T07:58:10.816Z,17.57
2018-08-30T07:59:14.528Z,12.47
2018-08-30T08:00:19.593Z,14.30
2018-08-30T08:01:23.580Z,16.50
2018-08-30T08:02:27.000Z,13.53
2018-08-30T08:03:30.497Z,15.90
2018-08-30T08:04:33.917Z,14.70
2018-08-30T08:05:38.394Z,14.25
2018-08-30T08:06:41.815Z,16.87
2018-08-30T08:07:45.241Z,17.30
2018-08-30T08:08:48.636Z,12.75
2018-08-30T08:09:52.228Z,16.00
2018-08-30T08:10:56.836Z,14.85
2018-08-30T08:12:00.290Z,20.37
2018-08-30T08:13:03.654Z,11.97
2018-08-30T08:14:07.401Z,15.30
2018-08-30T08:15:11.861Z,11.48
2018-08-30T08:16:16.782Z,12.33
2018-08-30T08:17:20.226Z,13.25
2018-08-30T08:18:23.608Z,11.53
2018-08-30T08:19:27.007Z,9.95
2018-08-30T08:20:31.652Z,8.18
2018-08-30T08:21:35.060Z,12.47
2018-08-30T08:22:38.441Z,11.85
2018-08-30T08:23:41.852Z,10.85
2018-08-30T08:24:45.297Z,15.00
2018-08-30T08:25:49.785Z,9.93
2018-08-30T08:26:53.228Z,12.55
2018-08-30T08:27:56.689Z,12.03
2018-08-30T08:29:00.091Z,10.00
2018-08-30T08:30:04.036Z,13.13
2018-08-30T08:31:08.612Z,11.25
2018-08-30T08:32:12.099Z,13.30
2018-08-30T08:33:15.493Z,11.30
2018-08-30T08:34:18.867Z,9.38
2018-08-30T08:35:23.284Z,9.40
2018-08-30T08:36:27.868Z,7.80
2018-08-30T08:37:31.260Z,11.65
2018-08-30T08:38:34.667Z,7.28
2018-08-30T08:39:38.051Z,6.55
2018-08-30T08:40:42.575Z,8.05
2018-08-30T08:41:46.068Z,8.55
2018-08-30T08:42:49.496Z,13.28
2018-08-30T08:43:52.960Z,10.60
2018-08-30T08:44:56.345Z,11.03
2018-08-30T08:46:00.952Z,11.18
2018-08-30T08:47:04.373Z,8.50
2018-08-30T08:48:07.880Z,8.00
2018-08-30T08:49:11.425Z,12.10
2018-08-30T08:50:16.358Z,8.90
2018-08-30T08:51:20.966Z,8.08
2018-08-30T08:52:24.397Z,9.28
2018-08-30T08:53:27.784Z,9.65
2018-08-30T08:54:31.208Z,6.10
2018-08-30T08:55:35.550Z,7.50
2018-08-30T08:56:38.984Z,8.60
2018-08-30T08:57:42.389Z,6.83
2018-08-30T08:58:45.835Z,9.75
2018-08-30T08:59:49.194Z,10.48
2018-08-30T09:00:53.483Z,7.87
2018-08-30T09:01:56.895Z,8.63
2018-08-30T09:03:00.347Z,8.98
2018-08-30T09:04:03.745Z,9.00
2018-08-30T09:05:08.517Z,10.30
2018-08-30T09:06:13.025Z,7.80
2018-08-30T09:07:16.487Z,7.03
2018-08-30T09:08:19.844Z,6.78
2018-08-30T09:09:23.237Z,5.87
2018-08-30T09:10:28.560Z,7.95
2018-08-30T09:11:31.969Z,8.43
2018-08-30T09:12:35.396Z,6.12
2018-08-30T09:13:38.833Z,7.70
2018-08-30T09:14:42.309Z,5.85
2018-08-30T09:15:47.250Z,8.68
2018-08-30T09:16:50.699Z,6.15
2018-08-30T09:17:54.083Z,3.45
2018-08-30T09:18:57.612Z,5.95
2018-08-30T09:20:00.996Z,7.47
2018-08-30T09:21:05.730Z,5.25
2018-08-30T09:22:09.151Z,4.62
2018-08-30T09:23:12.569Z,5.37
2018-08-30T09:24:16.000Z,5.70
2018-08-30T09:25:21.020Z,8.25
2018-08-30T09:26:25.883Z,6.95
2018-08-30T09:27:29.309Z,9.05
2018-08-30T09:28:32.679Z,6.30
2018-08-30T09:29:36.132Z,10.55
2018-08-30T09:30:40.591Z,8.23
2018-08-30T09:31:44.011Z,6.67
2018-08-30T09:32:47.403Z,4.35
2018-08-30T09:33:50.844Z,7.40
2018-08-30T09:34:54.226Z,5.70
2018-08-30T09:35:58.726Z,4.03
2018-08-30T09:37:02.187Z,7.10
2018-08-30T09:38:05.576Z,8.20
2018-08-30T09:39:09.580Z,5.05
2018-08-30T09:40:13.985Z,6.50
2018-08-30T09:41:18.504Z,5.10
2018-08-30T09:42:21.914Z,4.42
2018-08-30T09:43:25.296Z,6.87
2018-08-30T09:44:28.670Z,4.62
2018-08-30T09:45:33.198Z,5.22
2018-08-30T09:46:36.628Z,3.62
2018-08-30T09:47:40.024Z,6.35
2018-08-30T09:48:43.416Z,6.22
2018-08-30T09:49:46.888Z,4.35
2018-08-30T09:50:53.447Z,5.70
2018-08-30T09:51:56.881Z,6.10
2018-08-30T09:53:00.333Z,8.28
2018-08-30T09:54:03.765Z,5.78
2018-08-30T09:55:08.942Z,5.25
2018-08-30T09:56:13.464Z,8.85
2018-08-30T09:57:17.040Z,4.22
2018-08-30T09:58:20.324Z,5.58
2018-08-30T09:59:23.862Z,4.33
2018-08-30T10:00:33.403Z,4.28
2018-08-30T10:01:42.204Z,9.18
2018-08-30T10:02:50.283Z,7.92
2018-08-30T10:03:53.826Z,8.20
2018-08-30T10:04:57.152Z,6.22
2018-08-30T10:06:01.784Z,5.97
2018-08-30T10:07:05.334Z,8.40
2018-08-30T10:08:08.721Z,3.27
2018-08-30T10:09:12.287Z,4.72
2018-08-30T10:10:18.003Z,7.35
2018-08-30T10:11:22.483Z,5.30
2018-08-30T10:12:25.886Z,4.17
2018-08-30T10:13:29.269Z,6.28
2018-08-30T10:14:32.662Z,11.97
2018-08-30T10:15:37.222Z,7.05
2018-08-30T10:16:40.658Z,6.60
2018-08-30T10:17:44.240Z,5.17
2018-08-30T10:18:47.635Z,5.78
2018-08-30T10:19:51.092Z,5.53
2018-08-30T10:20:55.622Z,6.62
2018-08-30T10:21:59.067Z,3.67
2018-08-30T10:23:02.481Z,2.70
2018-08-30T10:24:05.859Z,4.42
2018-08-30T10:25:10.296Z,4.62
2018-08-30T10:26:14.651Z,3.42
2018-08-30T10:27:18.060Z,4.25
2018-08-30T10:28:21.497Z,6.45
2018-08-30T10:29:24.893Z,6.20
2018-08-30T10:30:29.838Z,6.00
2018-08-30T10:31:33.353Z,3.12
2018-08-30T10:32:36.724Z,4.65
2018-08-30T10:33:40.195Z,3.20
2018-08-30T10:34:43.581Z,4.50
2018-08-30T10:35:48.069Z,6.62
2018-08-30T10:36:51.520Z,6.35
2018-08-30T10:37:54.950Z,5.28
2018-08-30T10:38:58.420Z,6.25
2018-08-30T10:40:01.833Z,5.12
2018-08-30T10:41:06.509Z,4.12
2018-08-30T10:42:09.920Z,5.40
2018-08-30T10:43:13.335Z,8.18
2018-08-30T10:44:16.813Z,5.42
2018-08-30T10:45:21.287Z,5.75
2018-08-30T10:46:25.850Z,5.72
2018-08-30T10:47:29.259Z,2.90
2018-08-30T10:48:32.655Z,5.35
2018-08-30T10:49:36.120Z,2.67
2018-08-30T10:50:40.427Z,7.05
2018-08-30T10:51:43.840Z,9.23
2018-08-30T10:52:47.219Z,2.80
2018-08-30T10:53:50.597Z,5.70
2018-08-30T10:54:54.028Z,5.92
2018-08-30T10:55:59.463Z,6.10
2018-08-30T10:57:02.868Z,7.90
2018-08-30T10:58:06.288Z,7.42
2018-08-30T10:59:09.668Z,4.08
2018-08-30T11:00:14.384Z,10.43
2018-08-30T11:01:18.949Z,5.15
2018-08-30T11:02:22.540Z,3.40
2018-08-30T11:03:25.977Z,6.35
2018-08-30T11:04:29.625Z,4.30
2018-08-30T11:05:34.682Z,2.85
2018-08-30T11:06:38.144Z,5.12
2018-08-30T11:07:41.695Z,4.12
2018-08-30T11:08:45.097Z,5.50
2018-08-30T11:09:48.514Z,4.00
2018-08-30T11:10:53.482Z,3.33
2018-08-30T11:11:56.888Z,5.70
2018-08-30T11:13:00.570Z,4.50
2018-08-30T11:14:03.780Z,3.87
2018-08-30T11:15:08.127Z,6.90
2018-08-30T11:16:12.696Z,3.50
2018-08-30T11:17:16.112Z,5.58
2018-08-30T11:18:19.500Z,3.37
2018-08-30T11:19:22.986Z,3.72
2018-08-30T11:20:27.484Z,11.10
2018-08-30T11:21:31.083Z,4.42
2018-08-30T11:22:34.498Z,5.65
2018-08-30T11:23:38.027Z,6.50
2018-08-30T11:24:41.480Z,7.92
2018-08-30T11:25:45.855Z,5.10
2018-08-30T11:26:49.309Z,3.85
2018-08-30T11:27:52.697Z,5.35
2018-08-30T11:28:56.083Z,4.72
2018-08-30T11:29:59.470Z,4.65
2018-08-30T11:31:03.925Z,4.60
2018-08-30T11:32:07.364Z,8.15
2018-08-30T11:33:10.765Z,7.47
2018-08-30T11:34:14.149Z,3.02
2018-08-30T11:35:18.655Z,5.03
2018-08-30T11:36:23.140Z,4.20
2018-08-30T11:37:26.654Z,5.33
2018-08-30T11:38:30.100Z,4.97
2018-08-30T11:39:33.592Z,8.43
2018-08-30T11:40:38.102Z,7.15
2018-08-30T11:41:41.631Z,5.90
2018-08-30T11:42:45.010Z,6.58
2018-08-30T11:43:48.801Z,5.15
2018-08-30T11:44:52.201Z,6.12
2018-08-30T11:45:56.794Z,6.87
2018-08-30T11:47:00.217Z,3.25
2018-08-30T11:48:03.664Z,7.65
2018-08-30T11:49:07.168Z,2.12
2018-08-30T11:50:11.640Z,8.90
2018-08-30T11:51:17.534Z,7.00
2018-08-30T11:52:21.000Z,3.90
2018-08-30T11:53:24.454Z,5.55
2018-08-30T11:54:27.828Z,4.60
2018-08-30T11:55:32.318Z,4.58
2018-08-30T11:56:35.792Z,5.78
2018-08-30T11:57:39.183Z,5.15
2018-08-30T11:58:42.641Z,2.12
2018-08-30T11:59:46.030Z,4.20
2018-08-30T12:00:50.583Z,5.20
2018-08-30T12:01:54.091Z,4.75
2018-08-30T12:02:58.141Z,4.33
2018-08-30T12:04:01.548Z,2.87
2018-08-30T12:05:06.523Z,6.80
2018-08-30T12:06:10.904Z,4.62
2018-08-30T12:07:14.353Z,7.85
2018-08-30T12:08:17.783Z,4.47
2018-08-30T12:09:21.252Z,4.92
2018-08-30T12:10:25.713Z,6.50
2018-08-30T12:11:29.850Z,3.83
2018-08-30T12:12:33.227Z,5.92
2018-08-30T12:13:36.610Z,7.12
2018-08-30T12:14:40.017Z,8.55
2018-08-30T12:15:44.515Z,4.08
2018-08-30T12:16:47.943Z,6.50
2018-08-30T12:17:51.356Z,10.63
2018-08-30T12:18:54.781Z,4.30
2018-08-30T12:19:58.186Z,4.70
2018-08-30T12:21:02.714Z,3.62
2018-08-30T12:22:06.267Z,7.30
2018-08-30T12:23:09.654Z,5.83
2018-08-30T12:24:13.090Z,4.53
2018-08-30T12:25:17.609Z,3.15
2018-08-30T12:26:22.096Z,5.58
2018-08-30T12:27:25.488Z,9.75
2018-08-30T12:28:29.330Z,10.43
2018-08-30T12:29:32.719Z,3.60
2018-08-30T12:30:37.410Z,5.97
2018-08-30T12:31:41.005Z,3.30
2018-08-30T12:32:44.370Z,3.95
2018-08-30T12:33:47.835Z,3.77
2018-08-30T12:34:51.207Z,5.25
2018-08-30T12:35:56.017Z,3.55
2018-08-30T12:36:59.397Z,6.10
2018-08-30T12:38:02.786Z,4.37
2018-08-30T12:39:08.555Z,5.40
2018-08-30T12:40:13.577Z,5.28
2018-08-30T12:41:18.064Z,6.33
2018-08-30T12:42:21.526Z,6.10
2018-08-30T12:43:24.964Z,10.32
2018-08-30T12:44:28.314Z,5.53
2018-08-30T12:45:32.795Z,5.08
2018-08-30T12:46:36.252Z,4.92
2018-08-30T12:47:39.683Z,11.78
2018-08-30T12:48:43.101Z,5.95
2018-08-30T12:49:46.497Z,7.12
2018-08-30T12:50:51.560Z,1.22
2018-08-30T12:51:55.090Z,6.35
2018-08-30T12:52:58.446Z,6.05
2018-08-30T12:54:01.830Z,5.15
2018-08-30T12:55:05.425Z,3.90
2018-08-30T12:56:09.768Z,4.47
2018-08-30T12:57:13.255Z,3.83
2018-08-30T12:58:16.792Z,3.17
2018-08-30T12:59:25.637Z,4.67
2018-08-30T13:00:30.223Z,6.62
2018-08-30T13:01:33.753Z,4.00
2018-08-30T13:02:37.221Z,7.72
2018-08-30T13:03:40.601Z,7.03
2018-08-30T13:04:44.126Z,4.67
2018-08-30T13:05:49.021Z,5.17
2018-08-30T13:06:55.219Z,9.80
2018-08-30T13:07:58.684Z,5.50
2018-08-30T13:09:02.329Z,3.58
2018-08-30T13:10:06.368Z,3.77
2018-08-30T13:11:11.030Z,3.80
2018-08-30T13:12:14.434Z,3.47
2018-08-30T13:13:17.857Z,4.42
2018-08-30T13:14:21.218Z,6.28
2018-08-30T13:15:25.942Z,3.00
2018-08-30T13:16:29.990Z,4.53
2018-08-30T13:17:33.407Z,5.08
2018-08-30T13:18:36.788Z,3.50
2018-08-30T13:19:40.340Z,4.20
2018-08-30T13:20:44.925Z,4.80
2018-08-30T13:21:49.184Z,6.08
2018-08-30T13:22:52.698Z,4.10
2018-08-30T13:23:56.005Z,4.15
2018-08-30T13:24:59.729Z,5.15
2018-08-30T13:26:04.008Z,4.50
2018-08-30T13:27:07.389Z,2.20
2018-08-30T13:28:10.680Z,9.60
2018-08-30T13:29:14.147Z,2.90
2018-08-30T13:30:18.828Z,3.10
2018-08-30T13:31:23.281Z,7.78
2018-08-30T13:32:26.836Z,4.70
2018-08-30T13:33:30.172Z,3.27
2018-08-30T13:34:33.705Z,5.40
2018-08-30T13:35:38.494Z,2.62
2018-08-30T13:36:42.047Z,4.30
2018-08-30T13:37:45.513Z,2.85
2018-08-30T13:38:48.873Z,7.47
2018-08-30T13:39:52.233Z,3.02
2018-08-30T13:40:56.953Z,4.55
2018-08-30T13:42:00.456Z,6.85
2018-08-30T13:43:03.789Z,5.37
2018-08-30T13:44:08.809Z,5.97
2018-08-30T13:45:12.886Z,5.92
2018-08-30T13:46:17.655Z,5.65
2018-08-30T13:47:21.179Z,2.60
2018-08-30T13:48:24.411Z,3.33
2018-08-30T13:49:27.792Z,4.70
2018-08-30T13:50:32.548Z,2.92
2018-08-30T13:51:35.946Z,2.10
2018-08-30T13:52:39.325Z,6.42